createdAt,value
2022-12-20T00:01:34.956Z,-1.46
2022-12-20T00:04:05.632Z,-1.44
2022-12-20T00:06:35.705Z,-1.48
2022-12-20T00:09:04.656Z,-1.46
2022-12-20T00:11:31.459Z,-1.43
2022-12-20T00:13:58.991Z,-1.40
2022-12-20T00:16:28.534Z,-1.42
2022-12-20T00:18:58.257Z,-1.43
2022-12-20T00:21:25.984Z,-1.38
2022-12-20T00:23:53.940Z,-1.40
2022-12-20T00:26:24.409Z,-1.44
2022-12-20T00:28:52.839Z,-1.43
2022-12-20T00:31:22.196Z,-1.39
2022-12-20T00:33:51.101Z,-1.36
2022-12-20T00:36:19.444Z,-1.40
2022-12-20T00:38:47.517Z,-1.37
2022-12-20T00:41:20.850Z,-1.36
2022-12-20T00:43:48.024Z,-1.35
2022-12-20T00:46:15.968Z,-1.28
2022-12-20T00:48:42.891Z,-1.29
2022-12-20T00:51:12.901Z,-1.25
2022-12-20T00:53:40.144Z,-1.31
2022-12-20T00:56:07.667Z,-1.28
2022-12-20T00:58:36.775Z,-1.25
2022-12-20T01:01:05.056Z,-1.29
2022-12-20T01:03:32.053Z,-1.32
2022-12-20T01:06:01.172Z,-1.33
2022-12-20T01:08:30.259Z,-1.34
2022-12-20T01:11:06.521Z,-1.28
2022-12-20T01:13:35.183Z,-1.35
2022-12-20T01:16:20.547Z,-1.30
2022-12-20T01:18:47.961Z,-1.30
2022-12-20T01:21:16.873Z,-1.41
2022-12-20T01:23:43.804Z,-1.38
2022-12-20T01:26:16.200Z,-1.33
2022-12-20T01:28:43.796Z,-1.30
2022-12-20T01:31:13.861Z,-1.30
2022-12-20T01:33:40.872Z,-1.32
2022-12-20T01:36:12.000Z,-1.27
2022-12-20T01:38:38.690Z,-1.33
2022-12-20T01:41:05.726Z,-1.28
2022-12-20T01:43:52.686Z,-1.26
2022-12-20T01:46:22.247Z,-1.27
2022-12-20T01:48:54.217Z,-1.25
2022-12-20T01:51:22.968Z,-1.23
2022-12-20T01:53:54.544Z,-1.23
2022-12-20T01:56:21.291Z,-1.22
2022-12-20T01:58:51.763Z,-1.20
2022-12-20T02:01:18.944Z,-1.21
2022-12-20T02:03:47.203Z,-1.18
2022-12-20T02:06:18.160Z,-1.20
2022-12-20T02:08:47.995Z,-1.17
2022-12-20T02:11:23.085Z,-1.10
2022-12-20T02:14:14.581Z,-1.07
2022-12-20T02:17:04.592Z,-1.09
2022-12-20T02:20:01.931Z,-1.11
2022-12-20T02:22:31.579Z,-1.26
2022-12-20T02:25:01.039Z,-1.37
2022-12-20T02:27:30.645Z,-1.42
2022-12-20T02:30:05.348Z,-1.37
2022-12-20T02:32:54.028Z,-1.30
2022-12-20T02:35:27.574Z,-1.26
2022-12-20T02:37:57.514Z,-1.23
2022-12-20T02:40:28.788Z,-1.21
2022-12-20T02:42:59.584Z,-1.19
2022-12-20T02:45:34.704Z,-1.18
2022-12-20T02:48:07.657Z,-1.11
2022-12-20T02:50:43.781Z,-1.18
2022-12-20T02:53:10.749Z,-1.26
2022-12-20T02:56:02.065Z,-1.30
2022-12-20T02:58:49.335Z,-1.32
2022-12-20T03:01:23.391Z,-1.32
2022-12-20T03:03:51.826Z,-1.31
2022-12-20T03:06:19.274Z,-1.36
2022-12-20T03:08:46.679Z,-1.39
2022-12-20T03:11:14.301Z,-1.42
2022-12-20T03:13:41.062Z,-1.43
2022-12-20T03:16:10.846Z,-1.52
2022-12-20T03:18:39.124Z,-1.58
2022-12-20T03:21:06.175Z,-1.64
2022-12-20T03:23:33.215Z,-1.77
2022-12-20T03:25:59.955Z,-1.90
2022-12-20T03:28:33.295Z,-1.94
2022-12-20T03:31:00.173Z,-1.95
2022-12-20T03:33:27.150Z,-1.92
2022-12-20T03:35:54.285Z,-1.91
2022-12-20T03:38:21.297Z,-1.97
2022-12-20T03:40:47.989Z,-2.03
2022-12-20T03:43:18.481Z,-2.07
2022-12-20T03:45:45.183Z,-2.04
2022-12-20T03:48:11.868Z,-1.99
2022-12-20T03:50:38.605Z,-1.91
2022-12-20T03:53:05.406Z,-1.89
2022-12-20T03:55:33.994Z,-1.91
2022-12-20T03:58:00.700Z,-1.87
2022-12-20T04:00:31.979Z,-1.90
2022-12-20T04:03:18.542Z,-1.95
2022-12-20T04:05:45.353Z,-2.00
2022-12-20T04:08:12.817Z,-1.95
2022-12-20T04:11:00.160Z,-1.91
2022-12-20T04:13:31.959Z,-1.93
2022-12-20T04:16:00.896Z,-1.90
2022-12-20T04:18:31.092Z,-1.86
2022-12-20T04:21:03.860Z,-1.85
2022-12-20T04:23:32.176Z,-1.81
2022-12-20T04:25:59.123Z,-1.79
2022-12-20T04:28:26.159Z,-1.75
2022-12-20T04:30:54.597Z,-1.54
2022-12-20T04:33:27.367Z,-1.27
2022-12-20T04:35:55.366Z,-1.02
2022-12-20T04:38:24.510Z,-0.75
2022-12-20T04:40:54.987Z,-0.54
2022-12-20T04:43:23.939Z,-0.72
2022-12-20T04:45:59.048Z,-1.00
2022-12-20T04:51:15.530Z,-1.43
2022-12-20T04:53:48.530Z,-1.55
2022-12-20T04:56:44.139Z,-1.72
2022-12-20T04:59:15.486Z,-1.87
2022-12-20T05:01:45.123Z,-1.96
2022-12-20T05:04:16.891Z,-1.91
2022-12-20T05:06:43.737Z,-1.87
2022-12-20T05:09:10.687Z,-1.81
2022-12-20T05:11:38.334Z,-1.78
2022-12-20T05:14:08.131Z,-1.73
2022-12-20T05:16:34.938Z,-1.68
2022-12-20T05:19:03.403Z,-1.66
2022-12-20T05:21:51.626Z,-1.64
2022-12-20T05:24:37.227Z,-1.35
2022-12-20T05:27:14.499Z,-1.14
2022-12-20T05:29:41.489Z,-1.21
2022-12-20T05:32:09.807Z,-0.95
2022-12-20T05:34:40.230Z,-0.73
2022-12-20T05:37:07.244Z,-0.30
2022-12-20T05:39:36.405Z,0.00
2022-12-20T05:42:09.199Z,0.15
2022-12-20T05:44:36.904Z,0.10
2022-12-20T05:47:03.885Z,0.09
2022-12-20T05:49:34.606Z,0.09
2022-12-20T05:52:03.734Z,0.20
2022-12-20T05:54:30.629Z,0.29
2022-12-20T05:57:05.536Z,0.30
2022-12-20T05:59:37.945Z,0.25
2022-12-20T06:02:07.956Z,0.31
2022-12-20T06:04:36.239Z,0.34
2022-12-20T06:07:09.832Z,0.36
2022-12-20T06:09:37.352Z,0.37
2022-12-20T06:12:07.641Z,0.43
2022-12-20T06:14:34.843Z,0.55
2022-12-20T06:17:02.526Z,0.66
2022-12-20T06:19:30.831Z,0.70
2022-12-20T06:21:58.487Z,0.75
2022-12-20T06:24:32.077Z,0.86
2022-12-20T06:26:58.947Z,0.89
2022-12-20T06:29:26.758Z,0.80
2022-12-20T06:32:05.471Z,0.43
2022-12-20T06:34:32.924Z,0.00
2022-12-20T06:37:00.108Z,-0.43
2022-12-20T06:39:29.993Z,-0.74
2022-12-20T06:42:02.975Z,-0.97
2022-12-20T06:44:29.739Z,-1.16
2022-12-20T06:46:56.905Z,-1.28
2022-12-20T06:49:24.093Z,-1.31
2022-12-20T06:51:51.269Z,-1.32
2022-12-20T06:54:22.477Z,-1.22
2022-12-20T06:56:50.479Z,-1.16
2022-12-20T06:59:17.213Z,-1.10
2022-12-20T07:01:44.978Z,-1.04
2022-12-20T07:04:11.776Z,-0.98
2022-12-20T07:06:38.514Z,-0.93
2022-12-20T07:09:05.247Z,-0.89
2022-12-20T07:11:32.006Z,-0.86
2022-12-20T07:13:59.218Z,-0.75
2022-12-20T07:16:26.068Z,-0.63
2022-12-20T07:18:53.988Z,-0.55
2022-12-20T07:21:21.106Z,-0.49
2022-12-20T07:23:48.006Z,-0.48
2022-12-20T07:26:15.388Z,-0.47
2022-12-20T07:28:42.983Z,-0.65
2022-12-20T07:31:09.814Z,-0.85
2022-12-20T07:33:37.389Z,-0.91
2022-12-20T07:36:10.036Z,-0.90
2022-12-20T07:38:37.350Z,-0.92
2022-12-20T07:41:12.400Z,-0.94
2022-12-20T07:43:39.721Z,-1.02
2022-12-20T07:46:08.700Z,-0.90
2022-12-20T07:48:36.189Z,-0.80
2022-12-20T07:51:10.468Z,-0.66
2022-12-20T07:53:42.492Z,-0.53
2022-12-20T07:56:11.684Z,-0.47
2022-12-20T07:58:40.785Z,-0.43
2022-12-20T08:01:09.057Z,-0.38
2022-12-20T08:03:42.482Z,-0.34
2022-12-20T08:06:09.716Z,-0.27
2022-12-20T08:08:42.549Z,-0.31
2022-12-20T08:11:10.947Z,-0.40
2022-12-20T08:13:44.268Z,-0.43
2022-12-20T08:16:12.950Z,-0.46
2022-12-20T08:18:39.709Z,-0.48
2022-12-20T08:21:06.362Z,-0.49
2022-12-20T08:23:33.081Z,-0.56
2022-12-20T08:26:03.066Z,-0.66
2022-12-20T08:28:29.877Z,-0.68
2022-12-20T08:31:04.950Z,-0.56
2022-12-20T08:33:33.354Z,-0.42
2022-12-20T08:36:02.480Z,-0.29
2022-12-20T08:38:30.987Z,-0.17
2022-12-20T08:41:05.759Z,-0.14
2022-12-20T08:43:33.995Z,-0.09
2022-12-20T08:46:00.917Z,-0.07
2022-12-20T08:48:28.554Z,0.04
2022-12-20T08:51:04.271Z,0.12
2022-12-20T08:53:31.891Z,0.19
2022-12-20T08:56:04.767Z,0.13
2022-12-20T08:58:32.158Z,0.10
2022-12-20T09:01:06.405Z,0.16
2022-12-20T09:03:34.975Z,0.17
2022-12-20T09:06:06.764Z,0.29
2022-12-20T09:08:37.106Z,0.30
2022-12-20T09:11:09.908Z,0.36
2022-12-20T09:13:43.142Z,0.38
2022-12-20T09:16:12.320Z,0.63
2022-12-20T09:18:39.053Z,0.83
2022-12-20T09:21:07.948Z,1.19
2022-12-20T09:23:36.758Z,1.52
2022-12-20T09:26:08.906Z,1.79
2022-12-20T09:28:35.625Z,2.26
2022-12-20T09:31:04.113Z,2.38
2022-12-20T09:33:33.247Z,2.38
2022-12-20T09:36:00.956Z,2.13
2022-12-20T09:38:28.995Z,1.79
2022-12-20T09:41:03.926Z,1.60
2022-12-20T09:43:32.004Z,1.48
2022-12-20T09:46:00.958Z,1.37
2022-12-20T09:48:35.538Z,1.29
2022-12-20T09:51:12.606Z,1.49
2022-12-20T09:54:00.650Z,2.02
2022-12-20T09:56:35.940Z,2.44
2022-12-20T09:59:12.702Z,2.72
2022-12-20T10:01:44.909Z,2.87
2022-12-20T10:04:27.474Z,3.10
2022-12-20T10:07:06.480Z,3.35
2022-12-20T10:09:45.425Z,3.53
2022-12-20T10:12:21.040Z,3.63
2022-12-20T10:15:19.718Z,3.79
2022-12-20T10:18:22.213Z,4.12
2022-12-20T10:21:07.150Z,4.34
2022-12-20T10:23:42.840Z,4.44
2022-12-20T10:26:11.154Z,4.58
2022-12-20T10:28:38.591Z,4.68
2022-12-20T10:31:11.242Z,4.78
2022-12-20T10:33:38.013Z,4.97
2022-12-20T10:36:21.517Z,5.16
2022-12-20T10:38:51.767Z,5.29
2022-12-20T10:41:22.906Z,5.55
2022-12-20T10:43:56.345Z,5.63
2022-12-20T10:46:24.396Z,5.58
2022-12-20T10:48:51.682Z,5.57
2022-12-20T10:51:22.013Z,5.54
2022-12-20T10:53:58.152Z,5.46
2022-12-20T10:56:34.205Z,5.37
2022-12-20T10:59:27.071Z,5.27
2022-12-20T11:01:53.937Z,5.18
2022-12-20T11:04:36.020Z,5.05
2022-12-20T11:07:24.921Z,4.97
2022-12-20T11:09:58.302Z,4.93
2022-12-20T11:12:25.133Z,4.86
2022-12-20T11:15:08.730Z,4.73
2022-12-20T11:17:47.403Z,4.67
2022-12-20T11:20:27.910Z,4.03
2022-12-20T11:23:28.451Z,3.42
2022-12-20T11:26:25.491Z,2.99
2022-12-20T11:28:59.145Z,2.78
2022-12-20T11:32:04.009Z,2.94
2022-12-20T11:35:06.085Z,3.35
2022-12-20T11:37:56.558Z,3.76
2022-12-20T11:40:31.802Z,4.07
2022-12-20T11:43:27.895Z,4.23
2022-12-20T11:46:00.516Z,4.02
2022-12-20T11:48:55.047Z,3.59
2022-12-20T11:51:30.211Z,3.15
2022-12-20T11:54:09.224Z,2.84
2022-12-20T11:56:43.956Z,2.62
2022-12-20T11:59:20.563Z,2.55
2022-12-20T12:01:53.725Z,2.49
2022-12-20T12:04:26.215Z,2.46
2022-12-20T12:07:22.219Z,2.56
2022-12-20T12:10:16.922Z,2.85
2022-12-20T12:12:46.764Z,3.20
2022-12-20T12:15:17.259Z,3.57
2022-12-20T12:17:49.895Z,3.67
2022-12-20T12:20:48.674Z,3.29
2022-12-20T12:23:34.656Z,2.93
2022-12-20T12:26:07.175Z,2.82
2022-12-20T12:28:34.435Z,2.73
2022-12-20T12:31:07.821Z,2.75
2022-12-20T12:33:43.380Z,2.88
2022-12-20T12:36:36.756Z,2.98
2022-12-20T12:39:20.166Z,2.96
2022-12-20T12:42:01.629Z,2.89
2022-12-20T12:44:35.978Z,2.91
2022-12-20T12:47:15.911Z,2.86
2022-12-20T12:49:48.362Z,2.84
2022-12-20T12:52:35.909Z,3.05
2022-12-20T12:55:03.384Z,3.42
2022-12-20T12:57:58.859Z,3.69
2022-12-20T13:00:56.470Z,3.88
2022-12-20T13:03:54.028Z,4.08
2022-12-20T13:06:23.851Z,4.12
2022-12-20T13:09:16.100Z,3.70
2022-12-20T13:11:47.105Z,3.30
2022-12-20T13:14:18.938Z,3.07
2022-12-20T13:17:11.332Z,2.92
2022-12-20T13:19:36.620Z,3.13
2022-12-20T13:22:06.300Z,3.59
2022-12-20T13:24:48.410Z,3.90
2022-12-20T13:27:39.305Z,4.16
2022-12-20T13:30:10.368Z,4.35
2022-12-20T13:32:49.475Z,4.48
2022-12-20T13:35:25.449Z,4.48
2022-12-20T13:38:25.231Z,4.10
2022-12-20T13:41:00.403Z,3.78
2022-12-20T13:43:36.397Z,3.39
2022-12-20T13:46:09.077Z,3.25
2022-12-20T13:48:38.552Z,3.06
2022-12-20T13:51:08.185Z,2.98
2022-12-20T13:53:35.821Z,3.16
2022-12-20T13:56:49.411Z,3.53
2022-12-20T13:59:28.021Z,3.87
2022-12-20T14:01:57.834Z,4.07
2022-12-20T14:04:39.353Z,4.21
2022-12-20T14:07:06.442Z,4.30
2022-12-20T14:09:38.198Z,4.29
2022-12-20T14:12:11.627Z,4.33
2022-12-20T14:14:43.462Z,4.41
2022-12-20T14:17:19.723Z,4.38
2022-12-20T14:19:46.446Z,4.20
2022-12-20T14:22:13.857Z,3.87
2022-12-20T14:24:44.233Z,3.42
2022-12-20T14:27:14.185Z,3.07
2022-12-20T14:29:41.720Z,2.90
2022-12-20T14:32:18.567Z,2.73
2022-12-20T14:34:46.552Z,2.68
2022-12-20T14:37:34.917Z,2.52
2022-12-20T14:40:17.871Z,2.47
2022-12-20T14:42:45.885Z,2.48
2022-12-20T14:45:18.403Z,2.45
2022-12-20T14:48:01.938Z,2.48
2022-12-20T14:50:34.587Z,2.57
2022-12-20T14:53:03.097Z,2.81
2022-12-20T14:55:36.647Z,2.57
2022-12-20T14:58:24.480Z,2.35
2022-12-20T15:01:22.199Z,2.27
2022-12-20T15:03:51.588Z,2.25
2022-12-20T15:06:52.628Z,2.31
2022-12-20T15:09:19.611Z,2.36
2022-12-20T15:11:47.523Z,2.50
2022-12-20T15:14:36.681Z,2.43
2022-12-20T15:17:10.608Z,2.27
2022-12-20T15:19:42.284Z,2.16
2022-12-20T15:22:15.826Z,2.17
2022-12-20T15:24:43.399Z,2.34
2022-12-20T15:27:14.658Z,2.85
2022-12-20T15:29:42.321Z,3.12
2022-12-20T15:32:29.775Z,3.19
2022-12-20T15:34:56.837Z,3.13
2022-12-20T15:37:23.479Z,3.04
2022-12-20T15:39:50.082Z,3.21
2022-12-20T15:42:19.903Z,3.32
2022-12-20T15:44:47.017Z,3.40
2022-12-20T15:47:14.277Z,3.45
2022-12-20T15:49:46.165Z,3.40
2022-12-20T15:52:22.030Z,3.41
2022-12-20T15:54:49.044Z,3.45
2022-12-20T15:57:16.136Z,3.46
2022-12-20T16:02:38.621Z,3.46
2022-12-20T16:05:06.051Z,3.46
2022-12-20T16:07:32.702Z,3.44
2022-12-20T16:09:59.312Z,3.41
2022-12-20T16:12:30.041Z,3.33
2022-12-20T16:14:56.970Z,3.22
2022-12-20T16:17:24.102Z,3.14
2022-12-20T16:19:50.750Z,3.12
2022-12-20T16:22:20.295Z,3.08
2022-12-20T16:24:47.020Z,3.12
2022-12-20T16:27:14.073Z,3.12
2022-12-20T16:29:41.654Z,3.16
2022-12-20T16:32:16.614Z,3.20
2022-12-20T16:34:43.880Z,3.23
2022-12-20T16:37:11.870Z,3.24
2022-12-20T16:39:38.544Z,3.28
2022-12-20T16:42:13.657Z,3.30
2022-12-20T16:44:42.789Z,3.26
2022-12-20T16:47:09.968Z,3.23
2022-12-20T16:49:36.896Z,3.24
2022-12-20T16:52:05.947Z,3.26
2022-12-20T16:54:32.555Z,3.25
2022-12-20T16:56:59.206Z,3.33
2022-12-20T16:59:26.195Z,3.34
2022-12-20T17:01:55.898Z,3.42
2022-12-20T17:04:24.083Z,3.47
2022-12-20T17:06:50.866Z,3.56
2022-12-20T17:09:18.769Z,3.64
2022-12-20T17:11:45.537Z,3.72
2022-12-20T17:14:13.601Z,3.78
2022-12-20T17:16:41.563Z,3.77
2022-12-20T17:19:10.879Z,3.75
2022-12-20T17:24:26.808Z,3.77
2022-12-20T17:26:53.401Z,3.77
2022-12-20T17:29:20.616Z,3.82
2022-12-20T17:31:48.162Z,3.86
2022-12-20T17:34:18.723Z,3.92
2022-12-20T17:36:46.447Z,4.08
2022-12-20T17:39:13.487Z,4.29
2022-12-20T17:41:42.565Z,4.38
2022-12-20T17:44:35.390Z,4.47
2022-12-20T17:47:01.983Z,4.51
2022-12-20T17:49:28.642Z,4.50
2022-12-20T17:51:56.294Z,4.47
2022-12-20T17:54:25.723Z,4.44
2022-12-20T17:56:53.775Z,4.43
2022-12-20T17:59:22.389Z,4.41
2022-12-20T18:01:49.485Z,4.36
2022-12-20T18:04:16.932Z,4.32
2022-12-20T18:06:45.569Z,4.32
2022-12-20T18:09:17.611Z,4.27
2022-12-20T18:11:44.820Z,4.21
2022-12-20T18:14:12.136Z,4.19
2022-12-20T18:16:41.894Z,4.17
2022-12-20T18:19:16.681Z,4.14
2022-12-20T18:21:43.298Z,4.11
2022-12-20T18:24:11.789Z,4.09
2022-12-20T18:26:38.580Z,4.07
2022-12-20T18:29:05.355Z,4.04
2022-12-20T18:31:34.509Z,4.05
2022-12-20T18:34:02.044Z,4.05
2022-12-20T18:36:30.874Z,4.01
2022-12-20T18:38:59.653Z,4.01
2022-12-20T18:41:29.713Z,4.03
2022-12-20T18:43:58.729Z,4.03
2022-12-20T18:46:25.734Z,3.98
2022-12-20T18:48:55.024Z,3.97
2022-12-20T18:51:36.528Z,3.87
2022-12-20T18:54:05.812Z,3.89
2022-12-20T18:56:35.787Z,3.82
2022-12-20T18:59:10.702Z,3.81
2022-12-20T19:01:39.543Z,3.76
2022-12-20T19:04:07.846Z,3.75
2022-12-20T19:06:34.895Z,3.74
2022-12-20T19:09:04.985Z,3.73
2022-12-20T19:11:32.031Z,3.73
2022-12-20T19:13:58.693Z,3.70
2022-12-20T19:16:32.354Z,3.70
2022-12-20T19:19:00.869Z,3.73
2022-12-20T19:21:29.728Z,3.68
2022-12-20T19:23:59.581Z,3.64
2022-12-20T19:26:27.793Z,3.66
2022-12-20T19:28:54.800Z,3.65
2022-12-20T19:31:23.955Z,3.62
2022-12-20T19:33:53.151Z,3.60
2022-12-20T19:36:47.131Z,3.60
2022-12-20T19:39:22.356Z,3.65
2022-12-20T19:42:21.730Z,3.65
2022-12-20T19:44:37.279Z,3.73
2022-12-20T19:47:06.820Z,3.75
2022-12-20T19:49:35.533Z,3.73
2022-12-20T19:52:02.429Z,3.73
2022-12-20T19:54:29.076Z,3.73
2022-12-20T19:56:55.710Z,3.74
2022-12-20T19:59:22.303Z,3.76
2022-12-20T20:01:49.329Z,3.74
2022-12-20T20:04:16.404Z,3.77
2022-12-20T20:06:43.085Z,3.80
2022-12-20T20:09:09.711Z,3.84
2022-12-20T20:11:36.469Z,3.85
2022-12-20T20:14:03.983Z,3.84
2022-12-20T20:16:30.778Z,3.88
2022-12-20T20:18:58.000Z,3.88
2022-12-20T20:21:24.806Z,3.92
2022-12-20T20:23:52.891Z,3.93
2022-12-20T20:26:26.052Z,3.97
2022-12-20T20:28:53.152Z,4.00
2022-12-20T20:31:21.297Z,4.02
2022-12-20T20:33:48.235Z,4.06
2022-12-20T20:36:20.835Z,4.11
2022-12-20T20:38:48.096Z,4.13
2022-12-20T20:41:15.127Z,4.17
2022-12-20T20:43:42.928Z,4.18
2022-12-20T20:46:12.121Z,4.21
2022-12-20T20:48:39.569Z,4.20
2022-12-20T20:51:06.738Z,4.21
2022-12-20T20:53:34.607Z,4.26
2022-12-20T20:56:05.779Z,4.26
2022-12-20T20:58:33.484Z,4.27
2022-12-20T21:01:02.213Z,4.31
2022-12-20T21:03:30.475Z,4.39
2022-12-20T21:08:45.032Z,4.46
2022-12-20T21:11:12.412Z,4.53
2022-12-20T21:13:39.369Z,4.56
2022-12-20T21:16:20.739Z,4.51
2022-12-20T21:18:58.472Z,4.54
2022-12-20T21:21:26.460Z,4.56
2022-12-20T21:23:54.556Z,4.54
2022-12-20T21:26:22.606Z,4.52
2022-12-20T21:28:49.406Z,4.39
2022-12-20T21:31:19.291Z,4.20
2022-12-20T21:33:46.328Z,3.93
2022-12-20T21:36:16.678Z,3.70
2022-12-20T21:38:51.063Z,3.65
2022-12-20T21:41:19.225Z,3.65
2022-12-20T21:43:46.168Z,3.67
2022-12-20T21:46:13.150Z,3.70
2022-12-20T21:48:42.323Z,3.69
2022-12-20T21:51:14.320Z,3.72
2022-12-20T21:53:51.755Z,3.78
2022-12-20T21:56:19.963Z,3.81
2022-12-20T21:58:47.581Z,3.83
2022-12-20T22:01:18.774Z,3.97
2022-12-20T22:03:45.785Z,4.08
2022-12-20T22:06:12.589Z,4.20
2022-12-20T22:08:39.615Z,4.29
2022-12-20T22:11:12.137Z,4.40
2022-12-20T22:13:41.997Z,4.48
2022-12-20T22:16:15.417Z,4.52
2022-12-20T22:18:43.586Z,4.52
2022-12-20T22:21:13.111Z,4.46
2022-12-20T22:23:40.798Z,4.38
2022-12-20T22:26:10.706Z,4.35
2022-12-20T22:28:38.886Z,4.36
2022-12-20T22:31:08.554Z,4.36
2022-12-20T22:33:36.024Z,4.30
2022-12-20T22:36:03.326Z,4.30
2022-12-20T22:38:30.050Z,4.26
2022-12-20T22:41:10.783Z,4.22
2022-12-20T22:43:38.792Z,4.19
2022-12-20T22:46:05.739Z,4.26
2022-12-20T22:48:32.741Z,4.10
2022-12-20T22:51:05.726Z,3.78
2022-12-20T22:53:34.058Z,3.52
2022-12-20T22:56:01.261Z,3.38
2022-12-20T22:58:28.685Z,3.29
2022-12-20T23:01:00.352Z,3.24
2022-12-20T23:03:28.452Z,3.18
2022-12-20T23:05:58.090Z,3.14
2022-12-20T23:08:26.973Z,3.12
2022-12-20T23:11:12.419Z,3.21
2022-12-20T23:13:58.681Z,3.55
2022-12-20T23:16:25.589Z,3.87
2022-12-20T23:18:56.745Z,4.11
2022-12-20T23:21:44.220Z,4.16
2022-12-20T23:24:11.979Z,3.85
2022-12-20T23:26:39.635Z,3.57
2022-12-20T23:29:07.750Z,3.33
2022-12-20T23:31:34.783Z,3.10
2022-12-20T23:34:02.256Z,3.03
2022-12-20T23:36:29.495Z,2.97
2022-12-20T23:38:56.897Z,3.03
2022-12-20T23:41:23.755Z,3.05
2022-12-20T23:43:50.533Z,3.09
2022-12-20T23:46:19.335Z,3.07
2022-12-20T23:48:46.204Z,3.07
2022-12-20T23:51:13.132Z,3.04
2022-12-20T23:53:39.780Z,3.04
2022-12-20T23:56:15.437Z,3.02
2022-12-20T23:58:43.426Z,3.08
